createdAt,value
2023-01-13T00:01:35.618Z,100219.22
2023-01-13T00:04:05.750Z,100215.66
2023-01-13T00:06:35.481Z,100213.00
2023-01-13T00:09:07.102Z,100219.22
2023-01-13T00:11:36.749Z,100220.06
2023-01-13T00:14:06.720Z,100213.97
2023-01-13T00:16:36.396Z,100212.16
2023-01-13T00:19:06.423Z,100207.69
2023-01-13T00:21:36.080Z,100213.81
2023-01-13T00:24:07.970Z,100201.47
2023-01-13T00:26:37.579Z,100190.91
2023-01-13T00:29:07.719Z,100189.16
2023-01-13T00:31:37.429Z,100188.28
2023-01-13T00:34:07.450Z,100184.78
2023-01-13T00:36:37.082Z,100180.41
2023-01-13T00:39:08.429Z,100178.63
2023-01-13T00:41:51.741Z,100175.13
2023-01-13T00:44:22.042Z,100175.13
2023-01-13T00:46:51.927Z,100168.09
2023-01-13T00:49:22.660Z,100174.25
2023-01-13T00:51:52.401Z,100175.16
2023-01-13T00:54:23.898Z,100170.72
2023-01-13T00:56:53.589Z,100162.78
2023-01-13T00:59:23.681Z,100154.91
2023-01-13T01:01:53.518Z,100147.97
2023-01-13T01:04:23.581Z,100147.06
2023-01-13T01:06:53.300Z,100151.41
2023-01-13T01:09:24.821Z,100144.41
2023-01-13T01:11:54.503Z,100139.97
2023-01-13T01:14:24.449Z,100136.47
2023-01-13T01:16:54.382Z,100132.88
2023-01-13T01:19:24.428Z,100132.88
2023-01-13T01:21:55.278Z,100131.06
2023-01-13T01:24:26.686Z,100126.69
2023-01-13T01:26:56.401Z,100133.72
2023-01-13T01:29:26.345Z,100120.47
2023-01-13T01:31:56.123Z,100123.13
2023-01-13T01:34:26.204Z,100119.59
2023-01-13T01:36:55.917Z,100115.16
2023-01-13T01:39:27.500Z,100102.81
2023-01-13T01:42:14.491Z,100107.19
2023-01-13T01:44:54.087Z,100090.56
2023-01-13T01:47:25.381Z,100099.38
2023-01-13T01:49:56.711Z,100087.84
2023-01-13T01:52:28.243Z,100084.34
2023-01-13T01:55:01.659Z,100087.81
2023-01-13T01:57:34.481Z,100082.50
2023-01-13T02:00:05.970Z,100083.44
2023-01-13T02:02:41.700Z,100072.88
2023-01-13T02:05:12.283Z,100079.06
2023-01-13T02:07:43.256Z,100076.44
2023-01-13T02:10:15.928Z,100072.06
2023-01-13T02:12:46.659Z,100071.22
2023-01-13T02:15:17.848Z,100068.56
2023-01-13T02:17:56.451Z,100068.59
2023-01-13T02:20:37.138Z,100060.72
2023-01-13T02:23:42.862Z,100061.63
2023-01-13T02:26:30.713Z,100059.06
2023-01-13T02:29:32.494Z,100057.31
2023-01-13T02:32:06.430Z,100051.13
2023-01-13T02:34:40.354Z,100049.41
2023-01-13T02:37:15.681Z,100043.25
2023-01-13T02:39:50.742Z,100034.47
2023-01-13T02:42:42.080Z,100030.97
2023-01-13T02:45:14.460Z,100030.97
2023-01-13T02:47:48.170Z,100037.13
2023-01-13T02:50:19.482Z,100023.91
2023-01-13T02:52:52.436Z,100030.94
2023-01-13T02:55:23.511Z,100022.16
2023-01-13T02:57:54.662Z,100023.91
2023-01-13T03:00:24.829Z,100023.00
2023-01-13T03:02:56.565Z,100016.84
2023-01-13T03:05:26.941Z,100015.13
2023-01-13T03:08:02.695Z,100023.03
2023-01-13T03:10:48.971Z,100012.47
2023-01-13T03:13:23.499Z,100008.97
2023-01-13T03:15:56.521Z,100010.69
2023-01-13T03:18:34.486Z,100014.25
2023-01-13T03:21:08.190Z,99999.31
2023-01-13T03:23:42.941Z,100003.72
2023-01-13T03:26:15.195Z,99996.69
2023-01-13T03:28:52.421Z,100004.59
2023-01-13T03:31:25.924Z,100006.38
2023-01-13T03:34:00.534Z,99992.25
2023-01-13T03:36:31.539Z,99995.81
2023-01-13T03:39:06.478Z,99997.53
2023-01-13T03:41:38.349Z,100000.19
2023-01-13T03:44:24.371Z,99991.38
2023-01-13T03:47:21.262Z,99991.34
2023-01-13T03:49:54.854Z,99984.31
2023-01-13T03:52:26.870Z,99992.25
2023-01-13T03:54:59.540Z,99989.59
2023-01-13T03:57:32.764Z,99981.66
2023-01-13T04:00:04.260Z,99983.38
2023-01-13T04:02:49.210Z,99982.50
2023-01-13T04:05:21.039Z,99984.25
2023-01-13T04:07:54.565Z,99983.38
2023-01-13T04:10:27.952Z,99978.06
2023-01-13T04:13:05.489Z,99973.69
2023-01-13T04:15:38.228Z,99974.53
2023-01-13T04:18:13.578Z,99972.78
2023-01-13T04:20:46.119Z,99970.16
2023-01-13T04:23:15.742Z,99970.13
2023-01-13T04:25:46.224Z,99970.16
2023-01-13T04:28:16.352Z,99956.09
2023-01-13T04:30:46.695Z,99962.25
2023-01-13T04:33:17.400Z,99956.09
2023-01-13T04:35:49.503Z,99956.97
2023-01-13T04:38:20.937Z,99956.06
2023-01-13T04:40:51.181Z,99953.41
2023-01-13T04:43:20.962Z,99959.59
2023-01-13T04:45:50.932Z,99957.75
2023-01-13T04:48:20.874Z,99957.78
2023-01-13T04:50:52.383Z,99961.19
2023-01-13T04:53:22.157Z,99967.34
2023-01-13T04:55:52.632Z,99972.59
2023-01-13T04:58:23.382Z,99968.22
2023-01-13T05:00:53.742Z,99959.34
2023-01-13T05:03:24.732Z,99966.41
2023-01-13T05:05:56.162Z,99960.19
2023-01-13T05:08:26.060Z,99958.44
2023-01-13T05:10:55.993Z,99970.75
2023-01-13T05:13:42.771Z,99968.13
2023-01-13T05:16:31.494Z,99965.53
2023-01-13T05:19:01.251Z,99966.38
2023-01-13T05:21:50.121Z,99961.94
2023-01-13T05:24:33.460Z,99964.56
2023-01-13T05:27:03.416Z,99969.88
2023-01-13T05:29:33.031Z,99970.66
2023-01-13T05:32:04.774Z,99967.19
2023-01-13T05:34:34.343Z,99980.34
2023-01-13T05:37:08.249Z,99968.78
2023-01-13T05:39:51.532Z,99970.53
2023-01-13T05:42:38.763Z,99977.56
2023-01-13T05:45:08.823Z,99980.13
2023-01-13T05:47:39.061Z,99978.38
2023-01-13T05:50:11.195Z,99974.88
2023-01-13T05:52:43.741Z,99977.50
2023-01-13T05:55:13.495Z,99987.13
2023-01-13T05:57:43.702Z,99983.66
2023-01-13T06:00:13.889Z,99988.09
2023-01-13T06:02:43.974Z,99989.03
2023-01-13T06:05:13.636Z,99989.03
2023-01-13T06:07:45.042Z,99991.63
2023-01-13T06:10:14.692Z,99998.63
2023-01-13T06:12:44.752Z,100011.78
2023-01-13T06:15:14.310Z,100009.16
2023-01-13T06:17:44.385Z,100016.22
2023-01-13T06:20:15.021Z,100014.47
2023-01-13T06:22:48.481Z,100018.00
2023-01-13T06:25:23.282Z,100029.44
2023-01-13T06:27:54.835Z,100029.44
2023-01-13T06:30:24.651Z,100029.47
2023-01-13T06:32:57.151Z,100020.69
2023-01-13T06:35:29.905Z,100033.00
2023-01-13T06:38:03.061Z,100025.97
2023-01-13T06:40:33.345Z,100032.13
2023-01-13T06:43:16.775Z,100029.53
2023-01-13T06:45:49.526Z,100021.63
2023-01-13T06:48:21.871Z,100026.91
2023-01-13T06:50:51.510Z,100027.81
2023-01-13T06:53:23.261Z,100023.38
2023-01-13T06:55:53.892Z,100024.25
2023-01-13T06:58:24.503Z,100023.38
2023-01-13T07:00:54.413Z,100025.16
2023-01-13T07:03:24.938Z,100024.25
2023-01-13T07:05:55.969Z,100021.56
2023-01-13T07:08:27.688Z,100026.88
2023-01-13T07:10:57.234Z,100023.31
2023-01-13T07:13:44.622Z,100023.31
2023-01-13T07:16:14.303Z,100023.38
2023-01-13T07:18:44.271Z,100030.31
2023-01-13T07:21:19.068Z,100030.34
2023-01-13T07:23:50.714Z,100033.84
2023-01-13T07:26:20.384Z,100034.75
2023-01-13T07:28:50.773Z,100030.34
2023-01-13T07:31:22.524Z,100040.03
2023-01-13T07:33:52.681Z,100036.50
2023-01-13T07:36:22.685Z,100055.03
2023-01-13T07:38:54.989Z,100045.28
2023-01-13T07:41:42.975Z,100047.91
2023-01-13T07:44:12.871Z,100049.69
2023-01-13T07:46:42.584Z,100045.22
2023-01-13T07:49:13.374Z,100048.75
2023-01-13T07:51:43.152Z,100044.34
2023-01-13T07:54:14.567Z,100048.69
2023-01-13T07:56:44.294Z,100050.44
2023-01-13T07:59:15.320Z,100053.94
2023-01-13T08:01:45.156Z,100049.53
2023-01-13T08:04:15.419Z,100055.69
2023-01-13T08:06:45.206Z,100051.25
2023-01-13T08:09:16.661Z,100056.50
2023-01-13T08:12:06.564Z,100064.41
2023-01-13T08:14:36.788Z,100065.25
2023-01-13T08:17:06.518Z,100068.75
2023-01-13T08:19:36.748Z,100059.94
2023-01-13T08:22:09.207Z,100058.09
2023-01-13T08:24:40.770Z,100063.38
2023-01-13T08:27:10.554Z,100060.72
2023-01-13T08:29:40.800Z,100068.59
2023-01-13T08:32:10.861Z,100056.22
2023-01-13T08:34:40.952Z,100064.13
2023-01-13T08:37:10.995Z,100062.34
2023-01-13T08:39:42.787Z,100064.09
2023-01-13T08:42:12.409Z,100061.44
2023-01-13T08:44:42.626Z,100067.56
2023-01-13T08:47:12.309Z,100082.56
2023-01-13T08:49:42.489Z,100088.72
2023-01-13T08:52:12.227Z,100090.47
2023-01-13T08:54:44.044Z,100093.94
2023-01-13T08:57:15.486Z,100093.06
2023-01-13T08:59:46.409Z,100101.84
2023-01-13T09:02:17.773Z,100100.91
2023-01-13T09:04:48.133Z,100110.56
2023-01-13T09:07:18.746Z,100109.63
2023-01-13T09:09:50.159Z,100112.19
2023-01-13T09:12:37.109Z,100109.53
2023-01-13T09:15:07.666Z,100108.63
2023-01-13T09:17:37.356Z,100108.63
2023-01-13T09:20:07.975Z,100115.72
2023-01-13T09:22:37.904Z,100115.72
2023-01-13T09:25:10.158Z,100108.72
2023-01-13T09:27:40.373Z,100101.69
2023-01-13T09:30:11.068Z,100111.38
2023-01-13T09:32:40.919Z,100117.53
2023-01-13T09:35:10.154Z,100115.75
2023-01-13T09:37:40.998Z,100118.41
2023-01-13T09:40:17.008Z,100110.50
2023-01-13T09:43:05.489Z,100113.13
2023-01-13T09:45:41.145Z,100114.91
2023-01-13T09:48:14.822Z,100106.97
2023-01-13T09:50:56.554Z,100117.56
2023-01-13T09:53:28.573Z,100119.34
2023-01-13T09:56:00.591Z,100112.38
2023-01-13T09:58:30.522Z,100111.41
2023-01-13T10:01:18.006Z,100121.94
2023-01-13T10:03:49.417Z,100123.78
2023-01-13T10:06:21.777Z,100123.72
2023-01-13T10:08:52.252Z,100117.50
2023-01-13T10:11:44.652Z,100119.22
2023-01-13T10:14:17.511Z,100111.19
2023-01-13T10:16:50.617Z,100107.56
2023-01-13T10:19:23.422Z,100111.84
2023-01-13T10:22:01.820Z,100122.41
2023-01-13T10:24:37.612Z,100116.22
2023-01-13T10:27:14.810Z,100115.31
2023-01-13T10:29:45.175Z,100124.13
2023-01-13T10:32:15.631Z,100116.13
2023-01-13T10:34:52.788Z,100122.22
2023-01-13T10:37:23.785Z,100122.97
2023-01-13T10:39:55.793Z,100123.69
2023-01-13T10:42:28.416Z,100124.22
2023-01-13T10:44:59.475Z,100117.84
2023-01-13T10:47:31.165Z,100106.31
2023-01-13T10:50:22.926Z,100110.75
2023-01-13T10:53:00.875Z,100109.78
2023-01-13T10:55:35.244Z,100099.16
2023-01-13T10:58:19.829Z,100095.59
2023-01-13T11:00:51.468Z,100090.91
2023-01-13T11:03:41.652Z,100086.06
2023-01-13T11:06:21.525Z,100077.97
2023-01-13T11:08:56.211Z,100087.84
2023-01-13T11:11:43.819Z,100071.13
2023-01-13T11:14:40.114Z,100077.31
2023-01-13T11:17:28.870Z,100089.81
2023-01-13T11:20:04.092Z,100077.34
2023-01-13T11:22:35.562Z,100067.50
2023-01-13T11:25:07.115Z,100068.19
2023-01-13T11:27:41.756Z,100058.50
2023-01-13T11:30:24.899Z,100070.75
2023-01-13T11:33:13.783Z,100079.75
2023-01-13T11:35:48.749Z,100092.00
2023-01-13T11:38:24.264Z,100093.75
2023-01-13T11:40:54.730Z,100100.84
2023-01-13T11:43:31.737Z,100099.88
2023-01-13T11:46:03.474Z,100107.09
2023-01-13T11:48:34.848Z,100118.41
2023-01-13T11:51:09.569Z,100105.22
2023-01-13T11:53:45.973Z,100107.91
2023-01-13T11:56:27.317Z,100107.25
2023-01-13T11:59:08.620Z,100115.13
2023-01-13T12:01:51.008Z,100113.44
2023-01-13T12:04:25.556Z,100111.63
2023-01-13T12:07:02.075Z,100112.97
2023-01-13T12:09:55.383Z,100121.53
2023-01-13T12:12:35.435Z,100114.31
2023-01-13T12:15:29.880Z,100116.38
2023-01-13T12:18:09.744Z,100115.75
2023-01-13T12:20:45.858Z,100111.47
2023-01-13T12:23:23.000Z,100108.00
2023-01-13T12:25:54.672Z,100095.72
2023-01-13T12:28:26.645Z,100095.72
2023-01-13T12:30:59.562Z,100089.66
2023-01-13T12:33:46.840Z,100113.63
2023-01-13T12:36:22.895Z,100116.28
2023-01-13T12:38:59.717Z,100125.25
2023-01-13T12:42:11.741Z,100109.38
2023-01-13T12:45:06.488Z,100102.41
2023-01-13T12:47:38.279Z,100100.88
2023-01-13T12:50:26.647Z,100089.47
2023-01-13T12:52:58.708Z,100104.47
2023-01-13T12:55:34.868Z,100109.84
2023-01-13T12:58:16.638Z,100117.94
2023-01-13T13:01:00.870Z,100117.16
2023-01-13T13:03:31.956Z,100110.97
2023-01-13T13:06:20.198Z,100114.69
2023-01-13T13:09:15.418Z,100112.97
2023-01-13T13:12:03.664Z,100110.44
2023-01-13T13:14:51.763Z,100107.00
2023-01-13T13:17:42.666Z,100092.88
2023-01-13T13:20:30.484Z,100105.28
2023-01-13T13:23:00.470Z,100106.25
2023-01-13T13:25:31.738Z,100114.19
2023-01-13T13:28:10.217Z,100114.31
2023-01-13T13:30:45.231Z,100105.59
2023-01-13T13:33:22.541Z,100091.47
2023-01-13T13:36:03.124Z,100095.97
2023-01-13T13:39:01.376Z,100098.66
2023-01-13T13:41:50.119Z,100044.56
2023-01-13T13:44:41.896Z,100104.16
2023-01-13T13:47:12.039Z,100092.75
2023-01-13T13:49:45.160Z,100106.03
2023-01-13T13:52:21.844Z,100109.63
2023-01-13T13:54:53.120Z,100099.03
2023-01-13T13:57:29.593Z,100107.03
2023-01-13T14:00:01.496Z,100111.44
2023-01-13T14:02:41.496Z,100124.69
2023-01-13T14:05:19.105Z,100123.84
2023-01-13T14:07:58.158Z,100120.38
2023-01-13T14:10:32.404Z,100120.44
2023-01-13T14:13:14.584Z,100128.41
2023-01-13T14:15:45.638Z,100130.25
2023-01-13T14:18:17.587Z,100145.19
2023-01-13T14:20:53.841Z,100132.97
2023-01-13T14:23:28.197Z,100139.59
2023-01-13T14:26:04.439Z,100153.75
2023-01-13T14:28:37.616Z,100146.66
2023-01-13T14:31:09.616Z,100160.81
2023-01-13T14:33:41.760Z,100167.03
2023-01-13T14:36:17.800Z,100163.63
2023-01-13T14:38:48.093Z,100164.56
2023-01-13T14:41:21.179Z,100169.94
2023-01-13T14:43:54.499Z,100183.22
2023-01-13T14:46:38.557Z,100185.78
2023-01-13T14:49:18.224Z,100183.28
2023-01-13T14:51:48.605Z,100179.81
2023-01-13T14:54:39.262Z,100179.88
2023-01-13T14:57:15.224Z,100158.88
2023-01-13T14:59:52.062Z,100170.38
2023-01-13T15:02:41.539Z,100183.63
2023-01-13T15:05:37.050Z,100198.59
2023-01-13T15:08:21.722Z,100199.50
2023-01-13T15:10:54.736Z,100204.84
2023-01-13T15:13:29.981Z,100210.13
2023-01-13T15:16:19.826Z,100201.31
2023-01-13T15:19:00.261Z,100198.63
2023-01-13T15:21:30.345Z,100196.03
2023-01-13T15:24:01.710Z,100189.03
2023-01-13T15:26:31.649Z,100190.81
2023-01-13T15:29:02.225Z,100193.44
2023-01-13T15:31:33.744Z,100190.84
2023-01-13T15:34:04.334Z,100195.25
2023-01-13T15:36:37.077Z,100191.72
2023-01-13T15:39:08.545Z,100190.00
2023-01-13T15:41:55.178Z,100183.81
2023-01-13T15:44:42.449Z,100173.28
2023-01-13T15:47:14.715Z,100179.41
2023-01-13T15:49:45.785Z,100174.13
2023-01-13T15:52:19.803Z,100181.19
2023-01-13T15:54:49.888Z,100173.25
2023-01-13T15:57:22.771Z,100168.00
2023-01-13T15:59:54.254Z,100169.75
2023-01-13T16:02:25.900Z,100172.34
2023-01-13T16:04:56.180Z,100178.50
2023-01-13T16:07:26.807Z,100179.28
2023-01-13T16:09:59.664Z,100184.44
2023-01-13T16:12:31.151Z,100181.72
2023-01-13T16:15:03.895Z,100226.56
2023-01-13T16:17:35.213Z,100235.47
2023-01-13T16:20:09.133Z,100224.16
2023-01-13T16:22:40.288Z,100233.88
2023-01-13T16:25:18.881Z,100224.28
2023-01-13T16:27:49.448Z,100230.44
2023-01-13T16:30:23.373Z,100227.81
2023-01-13T16:32:55.357Z,100219.91
2023-01-13T16:35:25.802Z,100230.50
2023-01-13T16:38:04.538Z,100238.41
2023-01-13T16:40:41.663Z,100247.22
2023-01-13T16:43:14.004Z,100240.19
2023-01-13T16:45:44.587Z,100241.06
2023-01-13T16:48:18.955Z,100234.03
2023-01-13T16:50:49.291Z,100247.25
2023-01-13T16:53:19.088Z,100246.38
2023-01-13T16:55:48.977Z,100248.16
2023-01-13T16:58:19.883Z,100245.50
2023-01-13T17:00:51.220Z,100248.13
2023-01-13T17:03:25.266Z,100242.84
2023-01-13T17:06:01.823Z,100237.63
2023-01-13T17:08:33.076Z,100247.34
2023-01-13T17:11:03.198Z,100248.22
2023-01-13T17:13:32.962Z,100242.97
2023-01-13T17:16:03.328Z,100247.28
2023-01-13T17:18:34.665Z,100254.34
2023-01-13T17:21:08.471Z,100249.94
2023-01-13T17:23:40.360Z,100255.16
2023-01-13T17:26:32.981Z,100258.72
2023-01-13T17:29:10.759Z,100262.22
2023-01-13T17:31:43.175Z,100254.25
2023-01-13T17:34:14.483Z,100256.03
2023-01-13T17:36:47.149Z,100260.47
2023-01-13T17:39:23.312Z,100255.16
2023-01-13T17:41:57.570Z,100264.88
2023-01-13T17:44:30.275Z,100271.03
2023-01-13T17:47:08.102Z,100271.88
2023-01-13T17:49:45.119Z,100279.75
2023-01-13T17:52:22.167Z,100284.19
2023-01-13T17:54:55.257Z,100281.53
2023-01-13T17:57:28.609Z,100278.03
2023-01-13T18:00:00.704Z,100278.94
2023-01-13T18:02:44.126Z,100285.09
2023-01-13T18:05:21.626Z,100285.97
2023-01-13T18:07:53.254Z,100282.47
2023-01-13T18:10:23.374Z,100285.13
2023-01-13T18:12:56.558Z,100279.00
2023-01-13T18:15:30.172Z,100282.47
2023-01-13T18:18:19.973Z,100283.41
2023-01-13T18:21:16.601Z,100288.66
2023-01-13T18:24:06.520Z,100287.81
2023-01-13T18:26:55.812Z,100282.53
2023-01-13T18:29:26.876Z,100294.88
2023-01-13T18:31:56.964Z,100291.34
2023-01-13T18:34:27.146Z,100291.38
2023-01-13T18:37:01.278Z,100292.22
2023-01-13T18:39:33.392Z,100293.13
2023-01-13T18:42:22.434Z,100294.00
2023-01-13T18:44:57.196Z,100298.44
2023-01-13T18:47:28.929Z,100292.25
2023-01-13T18:49:59.382Z,100295.78
2023-01-13T18:52:30.589Z,100297.53
2023-01-13T18:55:02.552Z,100308.94
2023-01-13T18:57:35.344Z,100316.88
2023-01-13T19:00:06.688Z,100309.84
2023-01-13T19:02:38.898Z,100310.72
2023-01-13T19:05:12.087Z,100300.16
2023-01-13T19:07:51.705Z,100308.09
2023-01-13T19:10:25.250Z,100304.56
2023-01-13T19:12:57.372Z,100309.84
2023-01-13T19:15:29.006Z,100316.00
2023-01-13T19:18:00.183Z,100311.63
2023-01-13T19:20:31.765Z,100311.63
2023-01-13T19:23:05.381Z,100318.66
2023-01-13T19:25:36.369Z,100315.13
2023-01-13T19:28:06.457Z,100329.19
2023-01-13T19:30:38.756Z,100321.28
2023-01-13T19:33:09.122Z,100315.13
2023-01-13T19:35:39.534Z,100318.69
2023-01-13T19:38:13.213Z,100301.09
2023-01-13T19:40:54.293Z,100324.81
2023-01-13T19:43:46.065Z,100322.19
2023-01-13T19:46:18.128Z,100323.94
2023-01-13T19:48:53.359Z,100323.94
2023-01-13T19:51:24.004Z,100323.94
2023-01-13T19:53:56.056Z,100321.31
2023-01-13T19:56:32.710Z,100319.56
2023-01-13T19:59:08.376Z,100316.94
2023-01-13T20:01:47.025Z,100313.41
2023-01-13T20:04:29.202Z,100314.31
2023-01-13T20:07:02.431Z,100313.41
2023-01-13T20:09:37.533Z,100316.03
2023-01-13T20:12:10.646Z,100316.91
2023-01-13T20:14:45.915Z,100325.69
2023-01-13T20:17:17.794Z,100324.81
2023-01-13T20:19:50.253Z,100318.66
2023-01-13T20:22:32.314Z,100328.34
2023-01-13T20:25:04.906Z,100330.97
2023-01-13T20:27:36.785Z,100328.34
2023-01-13T20:30:09.779Z,100329.19
2023-01-13T20:32:39.793Z,100334.47
2023-01-13T20:35:11.325Z,100337.94
2023-01-13T20:37:45.379Z,100332.69
2023-01-13T20:40:19.634Z,100336.22
2023-01-13T20:42:53.572Z,100343.25
2023-01-13T20:45:26.286Z,100338.84
2023-01-13T20:47:59.261Z,100339.72
2023-01-13T20:50:29.236Z,100341.47
2023-01-13T20:53:00.877Z,100341.47
2023-01-13T20:55:33.614Z,100344.94
2023-01-13T20:58:07.006Z,100343.22
2023-01-13T21:00:39.488Z,100341.44
2023-01-13T21:03:13.182Z,100337.97
2023-01-13T21:05:46.657Z,100338.78
2023-01-13T21:08:19.055Z,100343.19
2023-01-13T21:10:54.291Z,100343.22
2023-01-13T21:13:47.307Z,100333.56
2023-01-13T21:16:20.638Z,100346.72
2023-01-13T21:19:07.706Z,100344.97
2023-01-13T21:21:41.256Z,100351.97
2023-01-13T21:24:14.617Z,100358.13
2023-01-13T21:26:45.545Z,100344.13
2023-01-13T21:29:17.135Z,100352.88
2023-01-13T21:31:47.113Z,100361.63
2023-01-13T21:34:17.554Z,100358.94
2023-01-13T21:36:48.321Z,100351.06
2023-01-13T21:39:18.656Z,100361.59
2023-01-13T21:42:05.328Z,100352.84
2023-01-13T21:44:54.292Z,100360.72
2023-01-13T21:47:42.485Z,100367.72
2023-01-13T21:50:15.195Z,100365.13
2023-01-13T21:52:51.151Z,100368.66
2023-01-13T21:55:24.923Z,100368.63
2023-01-13T21:57:55.451Z,100372.16
2023-01-13T22:00:29.543Z,100360.75
2023-01-13T22:03:00.536Z,100365.13
2023-01-13T22:05:31.181Z,100357.25
2023-01-13T22:08:01.519Z,100362.53
2023-01-13T22:10:32.673Z,100354.66
2023-01-13T22:13:23.904Z,100359.91
2023-01-13T22:15:56.162Z,100363.41
2023-01-13T22:18:27.031Z,100361.63
2023-01-13T22:21:02.484Z,100361.66
2023-01-13T22:23:32.868Z,100359.03
2023-01-13T22:26:06.291Z,100356.41
2023-01-13T22:28:41.006Z,100366.94
2023-01-13T22:31:13.798Z,100362.56
2023-01-13T22:33:45.820Z,100364.31
2023-01-13T22:36:16.791Z,100352.91
2023-01-13T22:38:46.612Z,100366.94
2023-01-13T22:41:16.825Z,100367.84
2023-01-13T22:43:46.768Z,100368.72
2023-01-13T22:46:19.006Z,100376.59
2023-01-13T22:48:52.165Z,100373.94
2023-01-13T22:51:23.189Z,100378.34
2023-01-13T22:53:53.077Z,100371.34
2023-01-13T22:56:25.901Z,100376.59
2023-01-13T22:58:58.432Z,100374.84
2023-01-13T23:01:32.247Z,100382.72
2023-01-13T23:04:03.385Z,100381.00
2023-01-13T23:06:34.539Z,100379.25
2023-01-13T23:09:07.793Z,100385.34
2023-01-13T23:14:40.421Z,100393.25
2023-01-13T23:17:12.108Z,100385.38
2023-01-13T23:19:41.813Z,100381.84
2023-01-13T23:22:13.404Z,100379.22
2023-01-13T23:24:44.791Z,100384.50
2023-01-13T23:27:14.912Z,100380.09
2023-01-13T23:29:44.410Z,100385.38
2023-01-13T23:32:16.001Z,100383.63
2023-01-13T23:34:45.623Z,100379.22
2023-01-13T23:37:15.735Z,100374.84
2023-01-13T23:39:45.310Z,100373.09
2023-01-13T23:42:15.349Z,100369.56
2023-01-13T23:44:45.046Z,100374.84
2023-01-13T23:47:16.686Z,100374.84
2023-01-13T23:49:47.011Z,100374.84
2023-01-13T23:52:18.356Z,100374.00
2023-01-13T23:54:48.070Z,100376.63
2023-01-13T23:57:18.419Z,100344.97
2023-01-13T23:59:49.147Z,100373.97
